createdAt,value
2022-08-25T00:01:23.380Z,21.36
2022-08-25T00:03:54.104Z,21.32
2022-08-25T00:06:21.536Z,21.30
2022-08-25T00:08:49.033Z,21.28
2022-08-25T00:11:20.020Z,21.28
2022-08-25T00:13:50.767Z,21.24
2022-08-25T00:16:19.384Z,21.23
2022-08-25T00:18:49.284Z,21.22
2022-08-25T00:21:16.628Z,21.21
2022-08-25T00:23:45.240Z,21.21
2022-08-25T00:26:12.916Z,21.19
2022-08-25T00:28:44.969Z,21.14
2022-08-25T00:31:14.092Z,21.09
2022-08-25T00:38:02.115Z,21.03
2022-08-25T00:40:29.508Z,20.97
2022-08-25T00:43:43.712Z,20.96
2022-08-25T00:46:11.449Z,20.91
2022-08-25T00:48:39.351Z,20.87
2022-08-25T00:51:07.700Z,20.86
2022-08-25T00:53:34.392Z,20.85
2022-08-25T00:56:01.821Z,20.82
2022-08-25T00:58:59.555Z,20.79
2022-08-25T01:01:26.966Z,20.76
2022-08-25T01:03:53.474Z,20.74
2022-08-25T01:06:36.884Z,20.70
2022-08-25T01:09:04.211Z,20.69
2022-08-25T01:11:44.899Z,20.67
2022-08-25T01:14:14.833Z,20.62
2022-08-25T01:16:43.176Z,20.60
2022-08-25T01:19:17.755Z,20.58
2022-08-25T01:21:49.543Z,20.55
2022-08-25T01:24:45.032Z,20.51
2022-08-25T01:27:11.596Z,20.48
2022-08-25T01:29:39.275Z,20.47
2022-08-25T01:32:14.821Z,20.46
2022-08-25T01:34:44.164Z,20.44
2022-08-25T01:37:13.690Z,20.42
2022-08-25T01:39:44.325Z,20.41
2022-08-25T01:42:38.977Z,20.39
2022-08-25T01:45:05.915Z,20.34
2022-08-25T01:47:32.604Z,20.31
2022-08-25T01:49:59.269Z,20.28
2022-08-25T01:52:33.808Z,20.28
2022-08-25T01:55:00.286Z,20.26
2022-08-25T01:57:30.145Z,20.23
2022-08-25T01:59:59.069Z,20.18
2022-08-25T02:03:07.449Z,20.17
2022-08-25T02:05:44.645Z,20.15
2022-08-25T02:08:14.883Z,20.12
2022-08-25T02:10:41.576Z,20.10
2022-08-25T02:13:08.989Z,20.09
2022-08-25T02:15:41.922Z,20.09
2022-08-25T02:18:36.692Z,20.06
2022-08-25T02:21:03.579Z,20.04
2022-08-25T02:23:30.163Z,20.01
2022-08-25T02:25:57.257Z,20.02
2022-08-25T02:28:24.294Z,20.04
2022-08-25T02:30:52.916Z,20.05
2022-08-25T02:33:25.127Z,20.03
2022-08-25T02:36:44.363Z,20.02
2022-08-25T02:39:11.652Z,20.04
2022-08-25T02:42:24.835Z,20.04
2022-08-25T02:44:53.927Z,20.05
2022-08-25T02:47:24.616Z,20.03
2022-08-25T02:50:04.955Z,20.03
2022-08-25T02:52:31.544Z,20.02
2022-08-25T02:54:58.345Z,20.03
2022-08-25T02:57:32.891Z,20.02
2022-08-25T02:59:59.446Z,20.03
2022-08-25T03:02:42.204Z,20.04
2022-08-25T03:05:16.827Z,20.05
2022-08-25T03:07:45.406Z,20.04
2022-08-25T03:10:20.774Z,20.03
2022-08-25T03:12:47.688Z,20.05
2022-08-25T03:15:16.761Z,20.04
2022-08-25T03:17:46.704Z,20.03
2022-08-25T03:20:26.036Z,20.03
2022-08-25T03:22:54.492Z,20.04
2022-08-25T03:25:39.519Z,20.04
2022-08-25T03:28:07.459Z,20.04
2022-08-25T03:30:34.455Z,20.04
2022-08-25T03:33:00.948Z,20.02
2022-08-25T03:35:36.787Z,20.01
2022-08-25T03:38:09.465Z,19.99
2022-08-25T03:40:38.166Z,19.97
2022-08-25T03:43:04.992Z,19.95
2022-08-25T03:46:20.293Z,19.91
2022-08-25T03:49:02.973Z,19.86
2022-08-25T03:51:33.325Z,19.81
2022-08-25T03:54:05.822Z,19.76
2022-08-25T03:56:32.631Z,19.73
2022-08-25T03:58:59.906Z,19.70
2022-08-25T04:01:28.538Z,19.69
2022-08-25T04:03:58.186Z,19.67
2022-08-25T04:06:39.463Z,19.64
2022-08-25T04:09:13.714Z,19.62
2022-08-25T04:11:40.868Z,19.60
2022-08-25T04:14:09.339Z,19.54
2022-08-25T04:16:45.714Z,19.51
2022-08-25T04:19:40.003Z,19.49
2022-08-25T04:22:18.728Z,19.43
2022-08-25T04:24:50.983Z,19.40
2022-08-25T04:27:24.389Z,19.37
2022-08-25T04:29:57.193Z,19.35
2022-08-25T04:32:32.166Z,19.35
2022-08-25T04:34:59.009Z,19.30
2022-08-25T04:37:26.533Z,19.27
2022-08-25T04:39:52.984Z,19.24
2022-08-25T04:42:52.688Z,19.16
2022-08-25T04:45:19.219Z,19.14
2022-08-25T04:48:05.115Z,19.13
2022-08-25T04:50:31.517Z,19.11
2022-08-25T04:52:58.006Z,19.11
2022-08-25T04:55:29.431Z,19.10
2022-08-25T04:58:08.189Z,19.07
2022-08-25T05:00:42.159Z,19.05
2022-08-25T05:03:08.692Z,19.07
2022-08-25T05:05:45.155Z,19.07
2022-08-25T05:08:11.588Z,19.08
2022-08-25T05:10:41.372Z,19.08
2022-08-25T05:13:09.773Z,19.12
2022-08-25T05:16:00.479Z,19.19
2022-08-25T05:18:30.599Z,19.23
2022-08-25T05:21:01.344Z,19.24
2022-08-25T05:23:30.066Z,19.28
2022-08-25T05:25:56.640Z,19.33
2022-08-25T05:28:24.679Z,19.38
2022-08-25T05:30:51.159Z,19.43
2022-08-25T05:33:18.410Z,19.44
2022-08-25T05:35:45.130Z,19.47
2022-08-25T05:38:21.675Z,19.51
2022-08-25T05:41:17.898Z,19.55
2022-08-25T05:44:01.580Z,19.62
2022-08-25T05:46:30.500Z,19.67
2022-08-25T05:48:58.883Z,19.71
2022-08-25T05:51:26.702Z,19.79
2022-08-25T05:53:53.493Z,19.82
2022-08-25T05:56:30.292Z,19.89
2022-08-25T05:58:56.776Z,19.93
2022-08-25T06:02:19.711Z,19.99
2022-08-25T06:04:46.320Z,20.05
2022-08-25T06:07:13.167Z,20.08
2022-08-25T06:09:42.431Z,20.12
2022-08-25T06:12:21.232Z,20.19
2022-08-25T06:14:49.387Z,20.24
2022-08-25T06:17:17.271Z,20.29
2022-08-25T06:19:44.436Z,20.33
2022-08-25T06:22:10.915Z,20.37
2022-08-25T06:24:37.315Z,20.41
2022-08-25T06:27:27.697Z,20.43
2022-08-25T06:29:55.113Z,20.44
2022-08-25T06:32:22.557Z,20.45
2022-08-25T06:34:48.989Z,20.47
2022-08-25T06:37:20.380Z,20.52
2022-08-25T06:39:54.009Z,20.60
2022-08-25T06:42:20.478Z,20.68
2022-08-25T06:45:22.136Z,20.74
2022-08-25T06:47:49.003Z,20.81
2022-08-25T06:50:15.685Z,20.88
2022-08-25T06:52:43.140Z,20.90
2022-08-25T06:55:10.349Z,20.94
2022-08-25T06:57:36.822Z,20.98
2022-08-25T07:00:34.203Z,21.04
2022-08-25T07:03:01.457Z,21.08
2022-08-25T07:05:42.576Z,21.15
2022-08-25T07:08:12.050Z,21.22
2022-08-25T07:10:38.876Z,21.32
2022-08-25T07:13:05.424Z,21.38
2022-08-25T07:15:31.848Z,21.42
2022-08-25T07:17:58.280Z,21.48
2022-08-25T07:22:53.041Z,21.67
2022-08-25T07:25:19.571Z,21.77
2022-08-25T07:27:46.110Z,21.86
2022-08-25T07:30:12.772Z,21.94
2022-08-25T07:32:42.004Z,22.00
2022-08-25T07:35:19.059Z,22.05
2022-08-25T07:37:51.611Z,22.12
2022-08-25T07:40:22.397Z,22.24
2022-08-25T07:42:50.510Z,22.31
2022-08-25T07:45:20.447Z,22.36
2022-08-25T07:47:47.588Z,22.41
2022-08-25T07:50:14.548Z,22.45
2022-08-25T07:52:41.480Z,22.52
2022-08-25T07:55:11.189Z,22.62
2022-08-25T07:57:40.316Z,22.69
2022-08-25T08:00:08.360Z,22.74
2022-08-25T08:02:44.210Z,22.80
2022-08-25T08:05:12.479Z,22.85
2022-08-25T08:07:43.361Z,22.90
2022-08-25T08:10:42.201Z,22.97
2022-08-25T08:12:59.849Z,23.07
2022-08-25T08:15:29.573Z,23.17
2022-08-25T08:17:58.016Z,23.28
2022-08-25T08:20:24.720Z,23.38
2022-08-25T08:22:51.781Z,23.48
2022-08-25T08:25:18.830Z,23.61
2022-08-25T08:27:48.782Z,23.70
2022-08-25T08:30:15.302Z,23.78
2022-08-25T08:33:06.277Z,23.86
2022-08-25T08:35:28.553Z,23.95
2022-08-25T08:37:55.240Z,24.02
2022-08-25T08:40:21.833Z,24.16
2022-08-25T08:43:18.033Z,24.22
2022-08-25T08:45:51.894Z,24.30
2022-08-25T08:48:52.293Z,24.38
2022-08-25T08:51:53.264Z,24.52
2022-08-25T08:54:37.307Z,24.62
2022-08-25T08:57:11.666Z,24.73
2022-08-25T08:59:49.443Z,24.84
2022-08-25T09:02:39.307Z,24.95
2022-08-25T09:05:47.233Z,25.08
2022-08-25T09:08:20.875Z,25.16
2022-08-25T09:11:13.359Z,25.32
2022-08-25T09:14:00.120Z,25.42
2022-08-25T09:17:17.583Z,25.56
2022-08-25T09:19:57.300Z,25.70
2022-08-25T09:22:48.935Z,25.77
2022-08-25T09:25:29.468Z,25.87
2022-08-25T09:28:30.153Z,26.01
2022-08-25T09:31:17.398Z,26.11
2022-08-25T09:33:44.441Z,26.21
2022-08-25T09:36:13.420Z,26.29
2022-08-25T09:38:40.084Z,26.36
2022-08-25T09:41:07.361Z,26.40
2022-08-25T09:43:43.928Z,26.42
2022-08-25T09:46:35.432Z,26.46
2022-08-25T09:49:17.204Z,26.53
2022-08-25T09:51:44.585Z,26.60
2022-08-25T09:54:13.914Z,26.67
2022-08-25T09:57:08.741Z,26.73
2022-08-25T09:59:53.729Z,26.80
2022-08-25T10:02:29.600Z,26.89
2022-08-25T10:05:35.405Z,26.99
2022-08-25T10:08:27.485Z,27.09
2022-08-25T10:10:57.437Z,27.26
2022-08-25T10:13:46.672Z,27.31
2022-08-25T10:16:25.379Z,27.39
2022-08-25T10:19:32.619Z,27.47
2022-08-25T10:22:05.888Z,27.57
2022-08-25T10:24:35.176Z,27.67
2022-08-25T10:27:17.317Z,27.75
2022-08-25T10:30:17.504Z,27.79
2022-08-25T10:33:27.352Z,27.86
2022-08-25T10:36:06.527Z,27.91
2022-08-25T10:38:38.029Z,27.98
2022-08-25T10:41:25.304Z,28.08
2022-08-25T10:43:58.596Z,28.21
2022-08-25T10:46:37.185Z,28.28
2022-08-25T10:49:18.463Z,28.31
2022-08-25T10:52:16.240Z,28.37
2022-08-25T10:55:10.231Z,28.46
2022-08-25T10:57:50.635Z,28.52
2022-08-25T11:00:31.509Z,28.55
2022-08-25T11:03:21.132Z,28.60
2022-08-25T11:05:55.950Z,28.67
2022-08-25T11:08:34.569Z,28.68
2022-08-25T11:11:37.198Z,28.67
2022-08-25T11:14:19.171Z,28.67
2022-08-25T11:16:57.365Z,28.69
2022-08-25T11:19:33.843Z,28.79
2022-08-25T11:22:13.092Z,28.83
2022-08-25T11:24:42.808Z,28.92
2022-08-25T11:27:17.823Z,28.93
2022-08-25T11:29:59.613Z,28.98
2022-08-25T11:32:27.161Z,28.97
2022-08-25T11:34:54.132Z,28.94
2022-08-25T11:37:25.986Z,29.00
2022-08-25T11:40:19.060Z,29.07
2022-08-25T11:43:41.918Z,29.20
2022-08-25T11:46:19.208Z,29.26
2022-08-25T11:49:13.628Z,29.34
2022-08-25T11:51:44.132Z,29.36
2022-08-25T11:54:34.548Z,29.41
2022-08-25T11:57:06.426Z,29.48
2022-08-25T11:59:51.737Z,29.60
2022-08-25T12:02:33.940Z,29.68
2022-08-25T12:05:01.165Z,29.67
2022-08-25T12:07:47.780Z,29.58
2022-08-25T12:10:20.732Z,29.52
2022-08-25T12:13:04.952Z,29.54
2022-08-25T12:15:42.809Z,29.60
2022-08-25T12:18:22.799Z,29.59
2022-08-25T12:20:58.200Z,29.60
2022-08-25T12:24:07.196Z,29.65
2022-08-25T12:26:36.184Z,29.59
2022-08-25T12:29:08.528Z,29.56
2022-08-25T12:31:52.808Z,29.46
2022-08-25T12:34:29.981Z,29.39
2022-08-25T12:37:06.308Z,29.38
2022-08-25T12:39:43.125Z,29.45
2022-08-25T12:42:28.626Z,29.54
2022-08-25T12:45:14.081Z,29.59
2022-08-25T12:47:44.777Z,29.68
2022-08-25T12:50:47.926Z,29.83
2022-08-25T12:53:28.069Z,29.89
2022-08-25T12:56:01.531Z,29.93
2022-08-25T12:58:58.416Z,29.92
2022-08-25T13:01:35.874Z,29.94
2022-08-25T13:04:22.396Z,29.95
2022-08-25T13:06:57.791Z,29.92
2022-08-25T13:09:52.416Z,29.93
2022-08-25T13:12:27.617Z,29.98
2022-08-25T13:14:56.871Z,30.02
2022-08-25T13:17:33.799Z,30.02
2022-08-25T13:20:29.131Z,30.06
2022-08-25T13:23:07.114Z,30.13
2022-08-25T13:25:34.616Z,30.12
2022-08-25T13:28:06.401Z,30.15
2022-08-25T13:30:39.146Z,30.19
2022-08-25T13:33:20.610Z,30.25
2022-08-25T13:36:14.252Z,30.25
2022-08-25T13:38:41.911Z,30.30
2022-08-25T13:41:29.415Z,30.32
2022-08-25T13:44:04.316Z,30.35
2022-08-25T13:46:31.643Z,30.36
2022-08-25T13:49:06.820Z,30.37
2022-08-25T13:51:36.669Z,30.37
2022-08-25T13:54:08.712Z,30.36
2022-08-25T13:56:41.912Z,30.31
2022-08-25T13:59:39.249Z,30.27
2022-08-25T14:02:08.567Z,30.22
2022-08-25T14:04:50.853Z,30.20
2022-08-25T14:07:19.653Z,30.21
2022-08-25T14:09:52.956Z,30.24
2022-08-25T14:12:46.388Z,30.24
2022-08-25T14:15:29.556Z,30.25
2022-08-25T14:18:06.587Z,30.27
2022-08-25T14:20:34.906Z,30.26
2022-08-25T14:23:19.020Z,30.22
2022-08-25T14:25:47.198Z,30.19
2022-08-25T14:28:17.576Z,30.19
2022-08-25T14:31:01.029Z,30.23
2022-08-25T14:33:36.238Z,30.24
2022-08-25T14:36:04.792Z,30.23
2022-08-25T14:38:32.436Z,30.17
2022-08-25T14:40:59.596Z,30.12
2022-08-25T14:43:31.959Z,30.08
2022-08-25T14:46:00.588Z,30.04
2022-08-25T14:48:35.008Z,30.02
2022-08-25T14:51:01.710Z,30.01
2022-08-25T14:53:28.805Z,30.02
2022-08-25T14:55:59.090Z,29.99
2022-08-25T14:58:26.851Z,30.01
2022-08-25T15:00:54.291Z,30.04
2022-08-25T15:03:29.442Z,30.06
2022-08-25T15:05:56.181Z,30.06
2022-08-25T15:08:41.369Z,30.03
2022-08-25T15:11:08.939Z,29.99
2022-08-25T15:13:36.637Z,29.98
2022-08-25T15:16:03.526Z,29.96
2022-08-25T15:18:29.966Z,29.97
2022-08-25T15:20:57.171Z,29.92
2022-08-25T15:23:24.089Z,29.86
2022-08-25T15:25:52.843Z,29.83
2022-08-25T15:28:21.863Z,29.83
2022-08-25T15:30:48.862Z,29.77
2022-08-25T15:33:15.388Z,29.73
2022-08-25T15:35:41.937Z,29.70
2022-08-25T15:38:10.029Z,29.61
2022-08-25T15:40:39.066Z,29.51
2022-08-25T15:43:07.554Z,29.38
2022-08-25T15:45:36.121Z,29.25
2022-08-25T15:48:03.433Z,29.08
2022-08-25T15:50:30.096Z,28.96
2022-08-25T15:52:56.521Z,28.84
2022-08-25T15:55:23.221Z,28.71
2022-08-25T15:57:49.999Z,28.62
2022-08-25T16:00:18.035Z,28.52
2022-08-25T16:02:45.534Z,28.43
2022-08-25T16:05:13.763Z,28.33
2022-08-25T16:07:42.835Z,28.23
2022-08-25T16:10:10.012Z,28.10
2022-08-25T16:12:37.570Z,28.02
2022-08-25T16:15:04.383Z,27.91
2022-08-25T16:17:30.804Z,27.84
2022-08-25T16:19:57.372Z,27.78
2022-08-25T16:22:24.112Z,27.77
2022-08-25T16:24:52.445Z,27.75
2022-08-25T16:27:19.897Z,27.75
2022-08-25T16:29:47.280Z,27.72
2022-08-25T16:32:14.863Z,27.67
2022-08-25T16:34:44.233Z,27.62
2022-08-25T16:37:11.596Z,27.58
2022-08-25T16:39:40.045Z,27.55
2022-08-25T16:42:07.864Z,27.53
2022-08-25T16:44:34.493Z,27.49
2022-08-25T16:47:01.437Z,27.47
2022-08-25T16:49:27.984Z,27.44
2022-08-25T16:51:57.465Z,27.43
2022-08-25T16:54:44.443Z,27.41
2022-08-25T16:57:11.516Z,27.40
2022-08-25T16:59:37.898Z,27.37
2022-08-25T17:02:07.551Z,27.34
2022-08-25T17:04:34.017Z,27.32
2022-08-25T17:07:00.521Z,27.30
2022-08-25T17:09:29.576Z,27.28
2022-08-25T17:11:57.216Z,27.25
2022-08-25T17:14:29.885Z,27.24
2022-08-25T17:16:57.296Z,27.24
2022-08-25T17:19:30.873Z,27.28
2022-08-25T17:21:58.572Z,27.28
2022-08-25T17:24:31.561Z,27.27
2022-08-25T17:27:23.371Z,27.26
2022-08-25T17:29:50.204Z,27.25
2022-08-25T17:32:16.837Z,27.27
2022-08-25T17:34:46.061Z,27.32
2022-08-25T17:37:12.467Z,27.32
2022-08-25T17:39:48.171Z,27.33
2022-08-25T17:42:16.997Z,27.34
2022-08-25T17:44:46.695Z,27.33
2022-08-25T17:47:13.160Z,27.31
2022-08-25T17:49:39.563Z,27.24
2022-08-25T17:52:06.011Z,27.21
2022-08-25T17:54:32.448Z,27.19
2022-08-25T17:56:59.212Z,27.13
2022-08-25T17:59:42.991Z,27.09
2022-08-25T18:02:09.681Z,27.04
2022-08-25T18:04:42.567Z,27.00
2022-08-25T18:07:09.724Z,26.95
2022-08-25T18:09:36.173Z,26.89
2022-08-25T18:12:02.870Z,26.85
2022-08-25T18:14:30.111Z,26.80
2022-08-25T18:16:56.994Z,26.73
2022-08-25T18:19:46.624Z,26.65
2022-08-25T18:22:13.139Z,26.59
2022-08-25T18:24:39.656Z,26.52
2022-08-25T18:27:06.211Z,26.45
2022-08-25T18:29:45.753Z,26.43
2022-08-25T18:32:19.619Z,26.34
2022-08-25T18:35:13.457Z,26.27
2022-08-25T18:38:22.088Z,26.17
2022-08-25T18:41:11.290Z,26.12
2022-08-25T18:43:39.593Z,26.03
2022-08-25T18:46:06.451Z,25.94
2022-08-25T18:48:47.545Z,25.88
2022-08-25T18:51:14.998Z,25.77
2022-08-25T18:53:49.778Z,25.70
2022-08-25T18:56:18.076Z,25.63
2022-08-25T18:58:47.361Z,25.58
2022-08-25T19:01:31.487Z,25.52
2022-08-25T19:03:58.079Z,25.47
2022-08-25T19:06:24.878Z,25.43
2022-08-25T19:08:57.513Z,25.38
2022-08-25T19:11:24.027Z,25.38
2022-08-25T19:13:51.496Z,25.34
2022-08-25T19:16:31.547Z,25.30
2022-08-25T19:19:18.465Z,25.23
2022-08-25T19:21:44.903Z,25.18
2022-08-25T19:24:15.166Z,25.09
2022-08-25T19:26:54.482Z,25.02
2022-08-25T19:29:21.600Z,24.97
2022-08-25T19:31:49.718Z,24.93
2022-08-25T19:34:28.289Z,24.86
2022-08-25T19:36:59.709Z,24.79
2022-08-25T19:39:26.218Z,24.70
2022-08-25T19:41:53.598Z,24.65
2022-08-25T19:44:20.073Z,24.59
2022-08-25T19:46:46.595Z,24.53
2022-08-25T19:49:20.491Z,24.47
2022-08-25T19:51:58.230Z,24.36
2022-08-25T19:54:35.054Z,24.26
2022-08-25T19:57:10.559Z,24.24
2022-08-25T19:59:43.105Z,24.23
2022-08-25T20:02:15.200Z,24.20
2022-08-25T20:04:42.619Z,24.11
2022-08-25T20:07:17.847Z,24.05
2022-08-25T20:09:45.308Z,23.97
2022-08-25T20:12:13.020Z,23.95
2022-08-25T20:14:39.629Z,23.84
2022-08-25T20:17:23.470Z,23.79
2022-08-25T20:19:54.049Z,23.72
2022-08-25T20:22:24.993Z,23.67
2022-08-25T20:24:55.902Z,23.61
2022-08-25T20:27:31.634Z,23.54
2022-08-25T20:29:58.324Z,23.53
2022-08-25T20:32:25.054Z,23.49
2022-08-25T20:35:13.137Z,23.49
2022-08-25T20:37:44.045Z,23.41
2022-08-25T20:40:13.339Z,23.33
2022-08-25T20:42:50.050Z,23.27
2022-08-25T20:45:21.816Z,23.21
2022-08-25T20:47:49.394Z,23.17
2022-08-25T20:50:16.649Z,23.13
2022-08-25T20:52:43.922Z,23.11
2022-08-25T20:55:11.456Z,23.04
2022-08-25T20:57:38.525Z,22.98
2022-08-25T21:00:06.775Z,22.92
2022-08-25T21:02:33.763Z,22.86
2022-08-25T21:05:02.772Z,22.79
2022-08-25T21:07:29.192Z,22.76
2022-08-25T21:09:57.492Z,22.73
2022-08-25T21:12:32.216Z,22.69
2022-08-25T21:14:58.659Z,22.72
2022-08-25T21:17:26.244Z,22.68
2022-08-25T21:19:53.736Z,22.66
2022-08-25T21:22:20.605Z,22.65
2022-08-25T21:24:47.490Z,22.63
2022-08-25T21:27:26.980Z,22.58
2022-08-25T21:29:55.415Z,22.53
2022-08-25T21:32:23.396Z,22.47
2022-08-25T21:34:54.033Z,22.46
2022-08-25T21:37:20.766Z,22.44
2022-08-25T21:39:48.485Z,22.41
2022-08-25T21:42:14.981Z,22.38
2022-08-25T21:44:41.845Z,22.39
2022-08-25T21:47:11.114Z,22.35
2022-08-25T21:49:37.873Z,22.19
2022-08-25T21:52:04.796Z,22.15
2022-08-25T21:54:31.889Z,22.13
2022-08-25T21:57:04.449Z,22.12
2022-08-25T21:59:36.786Z,22.09
2022-08-25T22:02:08.876Z,22.05
2022-08-25T22:04:36.853Z,22.06
2022-08-25T22:07:10.790Z,22.06
2022-08-25T22:09:40.103Z,22.04
2022-08-25T22:12:07.301Z,22.02
2022-08-25T22:14:34.911Z,22.02
2022-08-25T22:17:21.059Z,22.01
2022-08-25T22:19:53.662Z,21.98
2022-08-25T22:22:21.065Z,21.95
2022-08-25T22:24:51.939Z,21.91
2022-08-25T22:27:21.797Z,21.91
2022-08-25T22:29:55.652Z,21.89
2022-08-25T22:33:13.030Z,21.85
2022-08-25T22:35:39.962Z,21.85
2022-08-25T22:38:12.461Z,21.85
2022-08-25T22:40:40.717Z,21.77
2022-08-25T22:43:09.142Z,21.76
2022-08-25T22:45:40.329Z,21.77
2022-08-25T22:48:07.217Z,21.75
2022-08-25T22:50:36.161Z,21.70
2022-08-25T22:53:02.629Z,21.68
2022-08-25T22:55:30.708Z,21.70
2022-08-25T22:58:01.145Z,21.72
2022-08-25T23:00:27.684Z,21.75
2022-08-25T23:02:55.034Z,21.75
2022-08-25T23:05:22.644Z,21.76
2022-08-25T23:07:50.108Z,21.76
2022-08-25T23:10:16.687Z,21.71
2022-08-25T23:12:45.120Z,21.73
2022-08-25T23:15:12.591Z,21.70
2022-08-25T23:17:40.520Z,21.68
2022-08-25T23:20:27.639Z,21.63
2022-08-25T23:22:56.729Z,21.65
2022-08-25T23:25:23.325Z,21.64
2022-08-25T23:27:52.469Z,21.60
2022-08-25T23:30:19.050Z,21.58
2022-08-25T23:32:48.195Z,21.59
2022-08-25T23:35:14.704Z,21.60
2022-08-25T23:37:41.120Z,21.62
2022-08-25T23:40:10.675Z,21.60
2022-08-25T23:42:37.124Z,21.61
2022-08-25T23:45:04.126Z,21.61
2022-08-25T23:47:30.627Z,21.60
2022-08-25T23:49:57.100Z,21.60
2022-08-25T23:52:23.902Z,21.57
2022-08-25T23:55:02.580Z,21.52
2022-08-25T23:57:29.421Z,21.49
2022-08-25T23:59:56.260Z,21.50
